Time;durP1;ratioP1;P1;durP2;ratioP2;P2;SDS_P1;SDS_P2;PMS_P1;PMS_P2;Temp;Humidity;BMP_temperature;BMP_pressure;BME280_temperature;BME280_humidity;BME280_pressure;Samples;Min_cycle;Max_cycle;Signal;HPM_P1;HPM_P2
2023/05/22 00:01:00;;;;;;;13.13;11.83;;;;;;;17.70;89.73;155909.19;4985264;28;20802;-88
2023/05/22 00:03:28;;;;;;;14.70;13.30;;;;;;;17.67;89.43;155901.38;4988849;28;20441;-88
2023/05/22 00:05:57;;;;;;;13.77;12.37;;;;;;;17.61;89.81;155887.03;4988379;28;20458;-86
2023/05/22 00:08:25;;;;;;;14.13;12.33;;;;;;;17.56;90.14;155874.03;4991394;28;20952;-86
2023/05/22 00:10:52;;;;;;;15.30;13.70;;;;;;;17.54;90.33;155868.84;4987421;28;20453;-86
2023/05/22 00:13:19;;;;;;;14.40;12.97;;;;;;;17.53;89.94;155866.22;4998595;28;20460;-86
2023/05/22 00:15:46;;;;;;;13.83;12.53;;;;;;;17.47;90.67;155851.84;4995228;28;20820;-86
2023/05/22 00:18:13;;;;;;;14.33;12.87;;;;;;;17.42;90.89;155837.56;5011682;28;20440;-87
2023/05/22 00:20:41;;;;;;;13.90;12.47;;;;;;;17.42;91.11;155837.56;4996389;28;20484;-86
2023/05/22 00:23:09;;;;;;;13.30;11.93;;;;;;;17.38;91.15;155827.13;4989779;28;20479;-86
2023/05/22 00:25:37;;;;;;;13.37;11.97;;;;;;;17.40;90.34;155833.63;4995079;28;20445;-87
2023/05/22 00:28:03;;;;;;;13.80;12.40;;;;;;;17.36;90.75;155823.25;4998140;28;20451;-77
2023/05/22 00:30:30;;;;;;;13.73;12.33;;;;;;;17.29;91.18;155803.72;5005589;28;20484;-77
2023/05/22 00:32:57;;;;;;;13.67;12.30;;;;;;;17.24;91.45;155791.97;4992645;28;20519;-77
2023/05/22 00:35:24;;;;;;;14.53;13.10;;;;;;;17.22;91.49;155785.47;4992094;28;20480;-77
2023/05/22 00:37:50;;;;;;;14.03;12.00;;;;;;;17.19;92.19;155778.97;5007406;28;20448;-77
2023/05/22 00:40:17;;;;;;;15.23;13.13;;;;;;;17.22;91.99;155785.47;4986547;28;20487;-77
2023/05/22 00:42:45;;;;;;;13.87;12.47;;;;;;;17.20;92.03;155781.59;5001733;28;20472;-77
2023/05/22 00:45:13;;;;;;;12.30;11.00;;;;;;;17.24;92.03;155790.66;5010875;28;20491;-77
2023/05/22 00:47:39;;;;;;;14.70;13.20;;;;;;;17.20;91.67;155781.59;4995509;28;20460;-77
2023/05/22 00:50:07;;;;;;;15.20;13.63;;;;;;;17.13;92.37;155763.34;4992226;28;20839;-77
2023/05/22 00:52:35;;;;;;;15.60;13.57;;;;;;;17.12;92.54;155759.47;5009836;28;20484;-77
2023/05/22 00:55:02;;;;;;;12.90;11.67;;;;;;;17.18;92.67;155775.09;4985170;28;20482;-77
2023/05/22 00:57:30;;;;;;;15.67;11.53;;;;;;;17.13;92.71;155762.06;5005756;28;20453;-77
2023/05/22 00:59:58;;;;;;;13.83;12.33;;;;;;;17.07;93.48;155746.44;4990185;28;21061;-77
2023/05/22 01:02:24;;;;;;;13.60;12.20;;;;;;;17.01;92.52;155733.44;5005768;28;20539;-77
2023/05/22 01:04:55;;;;;;;14.90;13.50;;;;;;;16.94;92.98;155713.94;5010233;28;20455;-77
2023/05/22 01:07:22;;;;;;;14.63;13.00;;;;;;;16.83;93.54;155686.59;4991041;28;20983;-77
2023/05/22 01:09:51;;;;;;;15.00;13.00;;;;;;;16.78;94.24;155673.59;5011203;28;20453;-77
2023/05/22 01:12:27;;;;;;;14.43;12.93;;;;;;;16.73;94.26;155659.28;4991653;28;20484;-79
2023/05/22 01:14:59;;;;;;;14.00;12.50;;;;;;;16.70;94.71;155652.78;4972475;28;20485;-77
2023/05/22 01:17:33;;;;;;;14.70;13.20;;;;;;;16.66;94.72;155642.34;4984163;28;20926;-77
2023/05/22 01:20:10;;;;;;;13.50;12.20;;;;;;;16.66;95.75;155642.34;4985177;28;20470;-77
2023/05/22 01:22:57;;;;;;;13.10;11.73;;;;;;;16.63;95.90;155633.22;4998250;28;20460;-77
2023/05/22 01:25:46;;;;;;;13.97;12.57;;;;;;;16.59;96.01;155622.84;4988128;28;20480;-77
2023/05/22 01:28:25;;;;;;;14.73;13.10;;;;;;;16.55;96.16;155613.72;4992970;28;20463;-77
2023/05/22 01:30:59;;;;;;;13.90;12.50;;;;;;;16.53;95.71;155608.53;5002093;28;20465;-77
2023/05/22 01:33:28;;;;;;;13.43;12.13;;;;;;;16.51;96.20;155603.28;5001735;28;20552;-77
2023/05/22 01:35:57;;;;;;;13.50;12.20;;;;;;;16.46;96.43;155590.28;4992474;28;20481;-77
2023/05/22 01:38:25;;;;;;;15.87;12.43;;;;;;;16.43;96.72;155582.47;4999638;28;20567;-77
2023/05/22 01:40:53;;;;;;;14.67;13.20;;;;;;;16.40;96.46;155574.66;4985170;28;20965;-77
2023/05/22 01:43:20;;;;;;;16.67;13.20;;;;;;;16.32;96.01;155553.84;4988151;28;20457;-77
2023/05/22 01:45:46;;;;;;;15.37;13.03;;;;;;;16.31;96.71;155552.56;4990749;28;20446;-77
2023/05/22 01:48:15;;;;;;;15.93;12.90;;;;;;;16.27;97.75;155540.84;4989149;28;20436;-77
2023/05/22 01:50:42;;;;;;;14.20;12.80;;;;;;;16.24;98.42;155533.06;4986176;28;20908;-77
2023/05/22 01:53:12;;;;;;;13.97;12.60;;;;;;;16.19;98.34;155520.03;4993302;28;20448;-77
2023/05/22 01:55:44;;;;;;;14.87;13.10;;;;;;;16.15;98.99;155509.66;4981250;28;20557;-77
2023/05/22 01:58:17;;;;;;;16.93;13.17;;;;;;;16.13;99.18;155505.75;4966367;28;20976;-77
2023/05/22 02:00:45;;;;;;;16.30;14.10;;;;;;;16.10;99.34;155496.63;4973429;28;20461;-77
2023/05/22 02:03:16;;;;;;;15.90;13.70;;;;;;;16.08;99.20;155492.75;4988318;28;21063;-77
2023/05/22 02:05:43;;;;;;;26.20;17.00;;;;;;;16.07;99.33;155488.88;4987885;28;20454;-77
2023/05/22 02:08:10;;;;;;;18.50;16.10;;;;;;;16.05;99.71;155484.94;4968166;28;20476;-77
2023/05/22 02:10:40;;;;;;;19.03;16.37;;;;;;;16.02;99.51;155475.88;4988399;28;20457;-77
2023/05/22 02:13:09;;;;;;;16.33;14.63;;;;;;;15.99;99.85;155469.31;4992759;28;20567;-77
2023/05/22 02:15:36;;;;;;;17.43;15.50;;;;;;;15.96;100.00;155461.56;4982770;28;20594;-77
2023/05/22 02:18:04;;;;;;;16.57;14.70;;;;;;;15.93;100.00;155453.75;4988393;28;20961;-77
2023/05/22 02:20:32;;;;;;;18.47;15.50;;;;;;;15.95;100.00;155457.63;4983668;28;20428;-77
2023/05/22 02:22:59;;;;;;;17.90;15.53;;;;;;;15.93;100.00;155452.44;4993320;28;20499;-77
2023/05/22 02:25:25;;;;;;;18.47;15.37;;;;;;;15.91;100.00;155448.56;4986183;28;20469;-78
2023/05/22 02:27:52;;;;;;;19.30;17.00;;;;;;;15.88;100.00;155439.44;4994621;28;20461;-77
2023/05/22 02:30:20;;;;;;;19.97;17.23;;;;;;;15.87;100.00;155436.81;4992341;28;20484;-77
2023/05/22 02:32:49;;;;;;;18.37;16.43;;;;;;;15.89;100.00;155442.00;4991349;28;20465;-77
2023/05/22 02:35:16;;;;;;;17.73;14.90;;;;;;;15.90;100.00;155444.63;4990751;28;20489;-77
2023/05/22 02:37:44;;;;;;;16.53;14.77;;;;;;;15.91;100.00;155448.56;4990631;28;20870;-77
2023/05/22 02:40:11;;;;;;;15.53;13.50;;;;;;;15.92;100.00;155451.13;4992748;28;20500;-77
2023/05/22 02:42:38;;;;;;;15.90;14.07;;;;;;;15.96;100.00;155460.25;4985282;28;20463;-77
2023/05/22 02:45:06;;;;;;;14.23;12.83;;;;;;;15.97;100.00;155462.81;4968852;28;20465;-77
2023/05/22 02:47:32;;;;;;;16.80;14.37;;;;;;;15.98;100.00;155465.44;4973866;28;20463;-77
2023/05/22 02:49:59;;;;;;;16.00;14.00;;;;;;;16.01;100.00;155473.25;5008845;28;20822;-77
2023/05/22 02:52:27;;;;;;;15.50;13.90;;;;;;;16.03;100.00;155478.44;4984350;28;20473;-77
2023/05/22 02:54:55;;;;;;;16.70;14.90;;;;;;;16.05;100.00;155483.63;4989190;28;20513;-77
2023/05/22 02:57:22;;;;;;;15.07;13.50;;;;;;;16.06;100.00;155487.56;4970779;28;20441;-77
2023/05/22 02:59:48;;;;;;;16.37;14.37;;;;;;;16.09;100.00;155494.06;4986011;28;21226;-77
2023/05/22 03:02:16;;;;;;;17.03;14.73;;;;;;;16.10;100.00;155497.94;4986783;28;20472;-77
2023/05/22 03:04:43;;;;;;;15.50;13.47;;;;;;;16.11;100.00;155499.25;4967972;28;20457;-77
2023/05/22 03:07:11;;;;;;;16.40;14.70;;;;;;;16.11;100.00;155500.56;4988838;28;20457;-77
2023/05/22 03:09:38;;;;;;;15.20;13.70;;;;;;;16.11;100.00;155499.25;4990391;28;20457;-77
2023/05/22 03:12:08;;;;;;;18.30;14.63;;;;;;;16.09;100.00;155494.06;4968518;28;20633;-77
2023/05/22 03:14:35;;;;;;;15.40;13.73;;;;;;;16.06;100.00;155486.25;4967430;28;20480;-77
2023/05/22 03:17:02;;;;;;;17.43;15.50;;;;;;;16.11;100.00;155499.25;5005671;28;20452;-77
2023/05/22 03:19:28;;;;;;;16.63;14.13;;;;;;;16.11;100.00;155500.56;4973012;28;20469;-77
2023/05/22 03:21:55;;;;;;;14.90;13.30;;;;;;;16.11;100.00;155499.25;4969859;28;20538;-77
2023/05/22 03:24:22;;;;;;;14.83;13.43;;;;;;;16.08;100.00;155492.75;4992056;28;20444;-77
2023/05/22 03:26:48;;;;;;;16.47;14.87;;;;;;;16.09;100.00;155494.06;4992808;28;20536;-77
2023/05/22 03:29:22;;;;;;;16.00;13.90;;;;;;;16.10;100.00;155496.63;4978909;28;20557;-77
2023/05/22 03:31:49;;;;;;;17.40;15.60;;;;;;;16.07;100.00;155490.13;4970639;28;20548;-77
2023/05/22 03:34:15;;;;;;;16.37;14.70;;;;;;;16.07;100.00;155488.88;4992981;28;20464;-77
2023/05/22 03:36:45;;;;;;;16.27;14.60;;;;;;;16.05;100.00;155483.63;4955247;28;20476;-77
2023/05/22 03:39:12;;;;;;;17.40;15.20;;;;;;;16.07;100.00;155488.88;4967587;28;20520;-76
2023/05/22 03:41:47;;;;;;;15.33;13.73;;;;;;;16.07;100.00;155490.13;4974388;28;20456;-76
2023/05/22 03:44:14;;;;;;;16.20;14.50;;;;;;;16.07;100.00;155490.13;4991913;28;20448;-77
2023/05/22 03:46:41;;;;;;;18.27;15.00;;;;;;;16.03;100.00;155478.44;4974378;28;20456;-77
2023/05/22 03:49:08;;;;;;;16.60;14.90;;;;;;;15.96;100.00;155460.25;4977417;28;20469;-77
2023/05/22 03:51:36;;;;;;;15.20;13.60;;;;;;;15.94;100.00;155455.06;4975132;28;20445;-77
2023/05/22 03:54:03;;;;;;;15.47;13.53;;;;;;;15.91;100.00;155448.56;4989047;28;20469;-77
2023/05/22 03:56:30;;;;;;;15.63;13.70;;;;;;;15.89;100.00;155442.00;4968210;28;20476;-82
2023/05/22 03:58:57;;;;;;;16.60;14.27;;;;;;;15.87;100.00;155438.13;4967825;28;20838;-84
2023/05/22 04:01:23;;;;;;;17.50;14.73;;;;;;;15.89;100.00;155442.00;4962682;28;20488;-84
2023/05/22 04:03:51;;;;;;;15.70;14.10;;;;;;;15.91;100.00;155447.25;4977145;28;20462;-84
2023/05/22 04:06:20;;;;;;;16.30;14.67;;;;;;;15.95;100.00;155458.94;4990460;28;20434;-85
2023/05/22 04:08:47;;;;;;;16.63;14.13;;;;;;;15.98;100.00;155465.44;4994191;28;20478;-84
2023/05/22 04:11:14;;;;;;;16.20;14.50;;;;;;;15.98;100.00;155466.75;4980011;28;20478;-85
2023/05/22 04:13:41;;;;;;;15.83;14.23;;;;;;;16.02;100.00;155475.88;4960229;28;20540;-85
2023/05/22 04:16:07;;;;;;;15.90;14.20;;;;;;;15.99;100.00;155468.06;4967639;28;20881;-84
2023/05/22 04:18:34;;;;;;;16.13;14.43;;;;;;;15.97;100.00;155464.13;4991046;28;20465;-85
2023/05/22 04:21:02;;;;;;;15.47;13.73;;;;;;;15.97;100.00;155462.81;4970350;28;20461;-85
2023/05/22 04:23:29;;;;;;;15.90;14.23;;;;;;;15.96;100.00;155460.25;4985932;28;20465;-85
2023/05/22 04:25:57;;;;;;;16.60;14.90;;;;;;;16.01;100.00;155474.56;4987072;28;20521;-84
2023/05/22 04:28:23;;;;;;;16.83;13.77;;;;;;;16.04;100.00;155481.06;4985105;28;20518;-85
2023/05/22 04:30:50;;;;;;;14.97;12.90;;;;;;;16.18;100.00;155517.44;4973732;28;20541;-85
2023/05/22 04:33:18;;;;;;;16.70;15.00;;;;;;;16.25;100.00;155535.66;4990637;28;20453;-85
2023/05/22 04:35:44;;;;;;;16.57;13.90;;;;;;;16.32;100.00;155553.84;4979988;28;21154;-85
2023/05/22 04:38:12;;;;;;;16.37;13.77;;;;;;;16.42;100.00;155579.88;4988523;28;20521;-85
2023/05/22 04:40:39;;;;;;;17.80;15.37;;;;;;;16.58;100.00;155621.53;4975843;28;20445;-86
2023/05/22 04:43:06;;;;;;;18.77;14.50;;;;;;;16.72;99.95;155657.97;4987295;28;20457;-86
2023/05/22 04:46:00;;;;;;;17.73;15.07;;;;;;;16.95;98.27;155716.50;4987204;28;20517;-86
2023/05/22 04:48:27;;;;;;;15.37;13.87;;;;;;;17.11;97.38;155756.84;4974688;28;20964;-86
2023/05/22 04:50:56;;;;;;;15.20;13.70;;;;;;;17.26;96.56;155795.91;4959456;28;20454;-86
2023/05/22 04:53:26;;;;;;;15.23;13.43;;;;;;;17.42;95.69;155837.56;4975130;28;20553;-87
2023/05/22 04:55:53;;;;;;;15.40;13.87;;;;;;;17.54;95.18;155868.84;4955422;28;20468;-87
2023/05/22 04:58:19;;;;;;;15.30;13.83;;;;;;;17.71;94.37;155911.81;4976367;28;20512;-87
2023/05/22 05:00:46;;;;;;;14.67;13.20;;;;;;;17.90;93.55;155962.56;4977789;28;20465;-87
2023/05/22 05:03:12;;;;;;;17.27;14.13;;;;;;;18.07;92.59;156005.53;4976779;28;20457;-87
2023/05/22 05:05:41;;;;;;;14.20;12.67;;;;;;;18.22;92.33;156044.59;4968600;28;20442;-87
2023/05/22 05:08:07;;;;;;;14.27;12.87;;;;;;;18.38;90.96;156084.97;4967942;28;20559;-86
2023/05/22 05:10:35;;;;;;;15.53;13.87;;;;;;;18.59;90.24;156141.03;4975461;28;20548;-86
2023/05/22 05:13:03;;;;;;;14.90;13.20;;;;;;;18.81;89.97;156197.06;4987981;28;20604;-86
2023/05/22 05:15:32;;;;;;;15.00;13.40;;;;;;;19.03;90.58;156254.41;5005425;28;20509;-86
2023/05/22 05:18:02;;;;;;;15.40;13.63;;;;;;;19.24;89.57;156307.84;4980819;28;20433;-86
2023/05/22 05:20:29;;;;;;;14.57;13.00;;;;;;;19.38;88.97;156345.66;4993697;28;20551;-86
2023/05/22 05:22:56;;;;;;;14.40;13.00;;;;;;;19.57;87.71;156392.56;4979985;28;20491;-86
2023/05/22 05:25:22;;;;;;;15.07;13.57;;;;;;;19.71;86.84;156429.09;4983860;28;20460;-86
2023/05/22 05:27:51;;;;;;;14.70;13.20;;;;;;;19.84;86.22;156464.31;4995147;28;20500;-85
2023/05/22 05:30:18;;;;;;;14.87;13.37;;;;;;;19.93;85.26;156486.47;4967398;28;20586;-86
2023/05/22 05:33:10;;;;;;;14.43;12.97;;;;;;;20.03;84.69;156512.53;4981347;28;20491;-87
2023/05/22 05:35:43;;;;;;;14.50;13.10;;;;;;;20.20;83.72;156556.84;4997688;28;20489;-87
2023/05/22 05:38:19;;;;;;;15.17;13.67;;;;;;;20.32;82.48;156588.25;4972890;28;20460;-87
2023/05/22 05:40:47;;;;;;;15.33;13.83;;;;;;;20.39;82.98;156605.16;4989502;28;20457;-86
2023/05/22 05:43:16;;;;;;;15.20;13.70;;;;;;;20.49;83.25;156632.56;4979304;28;20465;-87
2023/05/22 05:45:47;;;;;;;14.30;12.90;;;;;;;20.58;81.67;156654.75;4974265;28;20561;-87
2023/05/22 05:48:14;;;;;;;13.53;12.23;;;;;;;20.64;82.14;156670.41;4979452;28;20456;-88
2023/05/22 05:50:46;;;;;;;19.00;12.70;;;;;;;20.90;80.79;156736.94;4980624;28;20520;-88
2023/05/22 05:53:16;;;;;;;14.17;12.80;;;;;;;21.01;79.76;156765.66;4994182;28;20474;-88
2023/05/22 05:55:51;;;;;;;14.17;12.73;;;;;;;21.25;78.73;156828.34;4976840;28;21042;-88
2023/05/22 05:58:19;;;;;;;12.97;11.63;;;;;;;21.48;77.08;156887.06;4971931;28;20549;-88
2023/05/22 06:00:57;;;;;;;12.87;11.67;;;;;;;21.62;74.60;156923.63;4969396;28;20461;-88
2023/05/22 06:03:25;;;;;;;12.80;11.50;;;;;;;21.64;75.34;156930.16;4974680;28;21087;-88
2023/05/22 06:06:01;;;;;;;13.53;12.23;;;;;;;21.77;75.69;156964.09;4988691;28;20474;-88
2023/05/22 06:08:55;;;;;;;14.60;13.10;;;;;;;21.89;74.45;156994.19;4948200;28;20521;-87
2023/05/22 06:11:29;;;;;;;14.00;12.60;;;;;;;21.82;73.40;156977.16;4975882;28;20950;-87
2023/05/22 06:13:58;;;;;;;13.87;12.67;;;;;;;21.67;76.92;156936.69;4978831;28;20501;-87
2023/05/22 06:16:25;;;;;;;13.80;12.30;;;;;;;21.68;77.28;156940.59;4975908;28;20489;-88
2023/05/22 06:18:52;;;;;;;13.20;11.90;;;;;;;21.85;76.46;156985.00;4975662;28;20469;-87
2023/05/22 06:21:20;;;;;;;13.80;12.40;;;;;;;21.96;75.31;157011.16;4988972;28;20456;-87
2023/05/22 06:23:47;;;;;;;13.93;12.60;;;;;;;22.00;73.55;157021.63;4976635;28;21082;-87
2023/05/22 06:26:14;;;;;;;13.13;11.73;;;;;;;22.00;73.75;157021.63;4982519;28;20453;-87
2023/05/22 06:28:43;;;;;;;13.80;12.50;;;;;;;22.19;73.26;157071.22;4975833;28;20552;-88
2023/05/22 06:31:11;;;;;;;14.20;12.80;;;;;;;22.26;70.83;157090.84;4967457;28;20469;-88
2023/05/22 06:33:44;;;;;;;14.33;12.93;;;;;;;22.25;71.75;157086.91;4987464;28;20441;-88
2023/05/22 06:36:11;;;;;;;14.80;12.97;;;;;;;22.20;71.88;157073.84;4975393;28;20561;-88
2023/05/22 06:38:38;;;;;;;14.50;13.10;;;;;;;22.10;71.86;157047.72;4967691;28;20969;-88
2023/05/22 06:41:06;;;;;;;13.13;11.90;;;;;;;22.28;71.28;157094.75;4967454;28;20477;-88
2023/05/22 06:43:33;;;;;;;16.17;12.97;;;;;;;22.44;70.95;157136.53;4970243;28;20442;-89
2023/05/22 06:46:12;;;;;;;15.67;14.17;;;;;;;22.64;69.75;157188.81;4975205;28;21120;-89
2023/05/22 06:48:50;;;;;;;15.17;13.27;;;;;;;22.76;70.26;157220.22;4986916;28;20450;-89
2023/05/22 06:51:24;;;;;;;14.40;13.00;;;;;;;22.92;69.14;157262.03;4972320;28;20468;-90
2023/05/22 06:53:55;;;;;;;14.37;12.87;;;;;;;23.04;68.59;157293.34;4969046;28;20481;-89
2023/05/22 06:56:26;;;;;;;14.93;13.33;;;;;;;23.29;67.43;157357.41;4970019;28;20517;-89
2023/05/22 06:59:04;;;;;;;12.83;11.70;;;;;;;23.54;67.91;157421.47;4972691;28;20804;-89
2023/05/22 07:01:52;;;;;;;14.40;12.90;;;;;;;23.73;67.75;157471.16;4969262;28;20509;-89
2023/05/22 07:04:28;;;;;;;15.20;13.70;;;;;;;24.00;67.20;157540.47;4963219;28;20517;-89
2023/05/22 07:06:57;;;;;;;15.00;13.50;;;;;;;24.14;67.56;157578.47;4996510;28;20457;-89
2023/05/22 07:09:24;;;;;;;14.30;12.90;;;;;;;24.17;66.99;157586.25;4982091;28;20457;-90
2023/05/22 07:11:51;;;;;;;14.80;13.30;;;;;;;24.04;66.82;157550.94;4957605;28;20592;-90
2023/05/22 07:14:18;;;;;;;14.80;13.40;;;;;;;24.07;67.36;157560.06;4971453;28;20584;-90
2023/05/22 07:16:45;;;;;;;13.63;12.33;;;;;;;24.33;63.48;157625.53;4966198;28;20836;-90
2023/05/22 07:19:15;;;;;;;16.03;13.60;;;;;;;24.30;65.72;157619.00;4989367;28;20536;-90
2023/05/22 07:21:42;;;;;;;14.10;12.70;;;;;;;24.39;66.90;157641.19;4987853;28;21007;-90
2023/05/22 07:24:10;;;;;;;15.30;14.00;;;;;;;24.64;63.98;157706.63;4984603;28;20449;-90
2023/05/22 07:26:45;;;;;;;13.30;12.10;;;;;;;24.82;64.10;157753.75;4981045;28;20458;-89
2023/05/22 07:29:11;;;;;;;14.87;13.47;;;;;;;25.11;62.25;157829.63;4962448;28;20493;-90
2023/05/22 07:31:38;;;;;;;13.20;12.00;;;;;;;24.82;60.49;157753.75;4977213;28;20995;-90
2023/05/22 07:34:05;;;;;;;13.00;11.70;;;;;;;24.65;61.23;157710.50;4968549;28;20481;-90
2023/05/22 07:36:33;;;;;;;12.67;11.47;;;;;;;24.52;61.15;157675.19;4964034;28;20973;-89
2023/05/22 07:39:00;;;;;;;12.13;11.00;;;;;;;24.51;62.77;157672.59;4956508;28;20489;-90
2023/05/22 07:41:27;;;;;;;14.43;12.93;;;;;;;24.67;61.96;157715.78;4972659;28;20533;-90
2023/05/22 07:43:53;;;;;;;13.83;12.53;;;;;;;24.64;62.65;157706.63;4966759;28;20510;-88
2023/05/22 07:46:26;;;;;;;13.70;12.30;;;;;;;24.81;61.16;157751.13;4956471;28;20474;-90
2023/05/22 07:49:02;;;;;;;13.77;12.37;;;;;;;24.95;59.93;157786.44;4970132;28;20548;-90
2023/05/22 07:51:28;;;;;;;13.43;12.10;;;;;;;25.02;60.62;157804.78;4985648;28;20496;-90
2023/05/22 07:53:57;;;;;;;12.30;11.10;;;;;;;25.06;61.76;157815.25;4985833;28;20480;-90
2023/05/22 07:56:24;;;;;;;13.70;12.40;;;;;;;24.87;61.37;157765.50;4971316;28;20483;-90
2023/05/22 07:58:51;;;;;;;13.07;11.73;;;;;;;24.90;63.15;157773.38;4975913;28;20461;-90
2023/05/22 08:01:20;;;;;;;14.40;13.10;;;;;;;24.82;61.48;157753.75;4970843;28;20465;-90
2023/05/22 08:03:46;;;;;;;14.47;13.17;;;;;;;24.69;61.68;157721.00;4972726;28;20549;-90
2023/05/22 08:06:14;;;;;;;13.33;12.03;;;;;;;24.58;61.72;157692.22;4978909;28;21867;-90
2023/05/22 08:08:41;;;;;;;13.40;12.10;;;;;;;24.51;61.53;157673.94;4976630;28;20473;-91
2023/05/22 08:11:09;;;;;;;13.00;11.80;;;;;;;24.43;61.80;157651.69;4968968;28;20485;-91
2023/05/22 08:13:37;;;;;;;12.77;11.57;;;;;;;24.44;61.21;157654.25;4981203;28;20882;-91
2023/05/22 08:16:04;;;;;;;13.03;11.93;;;;;;;24.44;61.64;157655.56;4979140;28;20540;-91
2023/05/22 08:18:31;;;;;;;12.77;11.47;;;;;;;24.45;62.67;157658.22;4981050;28;20453;-91
2023/05/22 08:20:58;;;;;;;14.43;12.97;;;;;;;24.43;62.83;157653.00;4975614;28;20465;-91
2023/05/22 08:23:25;;;;;;;15.13;13.73;;;;;;;24.39;64.24;157641.19;4975861;28;20480;-91
2023/05/22 08:25:52;;;;;;;19.03;15.23;;;;;;;24.24;63.46;157603.28;4959929;28;20441;-90
2023/05/22 08:28:20;;;;;;;15.30;13.90;;;;;;;24.18;63.98;157588.91;4980669;28;20474;-90
2023/05/22 08:30:46;;;;;;;13.83;12.43;;;;;;;24.19;67.05;157590.22;4988956;28;20949;-91
2023/05/22 08:33:13;;;;;;;14.37;12.90;;;;;;;24.24;64.64;157603.28;4976366;28;20457;-91
2023/05/22 08:35:40;;;;;;;15.43;13.17;;;;;;;24.27;65.70;157609.81;4965509;28;20457;-91
2023/05/22 08:38:06;;;;;;;14.87;13.47;;;;;;;24.32;64.89;157622.88;4997593;28;20583;-90
2023/05/22 08:40:36;;;;;;;14.30;12.90;;;;;;;24.33;66.85;157625.53;4982889;28;20497;-90
2023/05/22 08:43:04;;;;;;;12.87;11.67;;;;;;;24.33;66.67;157625.53;4973216;28;20859;-91
2023/05/22 08:45:33;;;;;;;12.90;11.57;;;;;;;24.31;66.80;157621.56;4977983;28;20811;-90
2023/05/22 08:48:04;;;;;;;13.03;11.77;;;;;;;24.31;67.58;157621.56;4984975;28;20822;-91
2023/05/22 08:50:32;;;;;;;13.30;11.77;;;;;;;24.34;67.29;157628.13;4969562;28;20466;-91
2023/05/22 08:53:01;;;;;;;13.87;12.40;;;;;;;24.31;66.42;157621.56;4969409;28;20486;-90
2023/05/22 08:55:28;;;;;;;13.40;12.20;;;;;;;24.35;66.73;157630.75;4974329;28;20869;-90
2023/05/22 08:57:56;;;;;;;14.90;13.50;;;;;;;24.31;67.32;157621.56;4990724;28;20504;-91
2023/05/22 09:00:23;;;;;;;13.23;12.03;;;;;;;24.25;68.44;157604.59;4988492;28;20474;-91
2023/05/22 09:02:52;;;;;;;14.07;12.67;;;;;;;24.26;68.48;157607.19;4965818;28;20490;-91
2023/05/22 09:05:18;;;;;;;14.30;12.83;;;;;;;24.24;67.58;157603.28;4965591;28;20943;-91
2023/05/22 09:07:47;;;;;;;13.90;12.60;;;;;;;24.33;67.96;157626.78;4974509;28;20453;-91
2023/05/22 09:10:14;;;;;;;14.00;12.77;;;;;;;24.58;68.11;157692.22;4974870;28;20569;-90
2023/05/22 09:13:02;;;;;;;13.53;12.33;;;;;;;24.85;65.48;157761.59;4978449;28;20885;-90
2023/05/22 09:15:30;;;;;;;13.90;12.60;;;;;;;25.01;65.23;157802.16;4973313;28;20477;-91
2023/05/22 09:17:58;;;;;;;14.43;12.90;;;;;;;25.12;63.16;157832.28;4979866;28;20493;-91
2023/05/22 09:20:25;;;;;;;15.10;12.70;;;;;;;25.03;62.17;157808.69;4974501;28;20453;-90
2023/05/22 09:22:52;;;;;;;16.20;14.70;;;;;;;24.94;62.83;157785.13;4974545;28;20469;-90
2023/05/22 09:25:19;;;;;;;15.20;13.80;;;;;;;25.08;62.10;157820.47;4972963;28;20469;-91
2023/05/22 09:27:46;;;;;;;17.23;13.27;;;;;;;24.90;62.24;157773.38;4969758;28;20568;-91
2023/05/22 09:30:16;;;;;;;15.43;12.93;;;;;;;24.86;64.62;157764.19;4974496;28;20446;-91
2023/05/22 09:32:42;;;;;;;16.20;14.60;;;;;;;24.98;62.58;157794.31;4974481;28;20549;-91
2023/05/22 09:35:10;;;;;;;14.83;13.30;;;;;;;25.10;62.91;157827.00;4986242;28;20446;-90
2023/05/22 09:37:37;;;;;;;16.50;14.80;;;;;;;25.13;62.38;157834.84;4968342;28;20512;-91
2023/05/22 09:40:08;;;;;;;16.30;14.13;;;;;;;24.97;62.12;157793.00;4971962;28;20534;-91
2023/05/22 09:42:35;;;;;;;17.20;14.80;;;;;;;25.12;63.65;157830.97;4972249;28;20997;-91
2023/05/22 09:45:07;;;;;;;15.33;13.90;;;;;;;25.59;61.64;157954.03;4971274;28;20446;-90
2023/05/22 09:47:36;;;;;;;16.20;14.50;;;;;;;25.74;60.56;157993.28;4990703;28;20838;-89
2023/05/22 09:50:06;;;;;;;14.30;13.00;;;;;;;26.06;60.05;158075.75;4976076;28;20505;-91
2023/05/22 09:52:35;;;;;;;14.20;12.97;;;;;;;26.02;60.27;158066.63;4973677;28;20958;-91
2023/05/22 09:55:03;;;;;;;14.60;13.10;;;;;;;26.22;60.36;158117.72;4975249;28;20529;-92
2023/05/22 09:57:32;;;;;;;17.83;14.50;;;;;;;26.12;58.67;158090.16;4959303;28;20877;-92
2023/05/22 10:00:17;;;;;;;14.90;13.60;;;;;;;26.02;60.26;158065.31;4959267;28;20513;-91
2023/05/22 10:02:47;;;;;;;15.10;13.70;;;;;;;25.89;57.76;158031.25;4967553;28;20454;-91
2023/05/22 10:05:20;;;;;;;14.60;13.30;;;;;;;25.43;58.98;157913.41;4972421;28;20442;-93
2023/05/22 10:07:49;;;;;;;14.60;13.17;;;;;;;25.43;60.72;157913.41;4956866;28;20446;-91
2023/05/22 10:10:18;;;;;;;14.03;12.73;;;;;;;25.50;60.97;157929.13;4972252;28;20474;-92
2023/05/22 10:12:51;;;;;;;14.43;13.13;;;;;;;25.62;60.00;157960.56;4956001;28;20578;-92
2023/05/22 10:15:18;;;;;;;15.17;13.60;;;;;;;25.59;58.63;157954.03;4972733;28;20768;-92
2023/05/22 10:17:45;;;;;;;16.17;14.50;;;;;;;25.21;59.37;157855.81;4974177;28;20560;-92
2023/05/22 10:20:13;;;;;;;14.07;12.80;;;;;;;25.18;59.92;157846.63;4977777;28;20489;-92
2023/05/22 10:22:39;;;;;;;14.57;13.17;;;;;;;25.30;59.99;157879.38;4991194;28;20485;-92
2023/05/22 10:25:09;;;;;;;14.90;13.50;;;;;;;25.46;59.29;157920.00;4975210;28;20534;-91
2023/05/22 10:27:36;;;;;;;13.50;12.10;;;;;;;25.71;59.66;157984.09;4975532;28;20446;-92
2023/05/22 10:30:13;;;;;;;13.37;12.10;;;;;;;26.01;59.20;158062.66;4984301;28;20444;-92
2023/05/22 10:32:53;;;;;;;14.70;13.50;;;;;;;26.23;56.53;158119.03;4985327;28;20514;-91
2023/05/22 10:35:24;;;;;;;14.27;12.97;;;;;;;25.75;57.87;157995.91;4958655;28;20448;-92
2023/05/22 13:11:43;;;;;;;12.43;11.13;;;;;;;25.74;54.90;157991.97;4941021;28;20519;-79
2023/05/22 13:14:10;;;;;;;11.73;10.53;;;;;;;25.92;54.55;158040.41;4945118;28;20887;-79
2023/05/22 13:16:36;;;;;;;14.60;11.20;;;;;;;25.97;54.29;158052.22;4936579;28;20475;-80
2023/05/22 13:19:03;;;;;;;11.97;10.87;;;;;;;26.13;53.61;158094.16;4944753;28;20442;-80
2023/05/22 13:21:30;;;;;;;11.90;10.83;;;;;;;26.23;53.32;158119.03;4943447;28;20468;-80
2023/05/22 13:23:56;;;;;;;13.33;11.63;;;;;;;26.22;53.75;158116.38;4952851;28;20443;-80
2023/05/22 13:26:23;;;;;;;12.30;11.20;;;;;;;26.22;51.79;158117.72;4956580;28;20467;-80
2023/05/22 13:28:51;;;;;;;14.00;11.47;;;;;;;26.09;52.68;158083.63;4947013;28;20459;-80
2023/05/22 13:31:18;;;;;;;12.53;11.43;;;;;;;26.10;52.53;158086.25;4937854;28;20454;-80
2023/05/22 13:33:44;;;;;;;13.37;12.17;;;;;;;26.13;53.29;158092.84;4944900;28;20463;-80
2023/05/22 13:36:11;;;;;;;12.00;10.80;;;;;;;26.22;54.82;158117.72;4951030;28;20915;-79
2023/05/22 13:38:38;;;;;;;12.53;11.20;;;;;;;26.34;52.65;158147.84;4944510;28;20491;-80
2023/05/22 13:41:05;;;;;;;11.97;10.87;;;;;;;26.43;53.12;158171.38;4946449;28;20459;-80
2023/05/22 13:43:31;;;;;;;15.37;13.30;;;;;;;26.53;52.27;158197.56;4943661;28;20527;-80
2023/05/22 13:45:59;;;;;;;12.73;11.63;;;;;;;26.60;52.26;158217.25;4938643;28;20459;-80
2023/05/22 13:48:26;;;;;;;11.93;10.93;;;;;;;26.76;51.54;158256.53;4929323;28;20851;-80